sensor_id;sensor_type;location;lat;lon;timestamp;P1;durP1;ratioP1;P2;durP2;ratioP2
44204;SDS011;30163;42.698;23.344;2022-09-24T00:01:10;24.95;;;14.60;;
44204;SDS011;30163;42.698;23.344;2022-09-24T00:03:37;23.73;;;13.93;;
44204;SDS011;30163;42.698;23.344;2022-09-24T00:06:03;29.65;;;14.73;;
44204;SDS011;30163;42.698;23.344;2022-09-24T00:08:30;23.05;;;13.95;;
44204;SDS011;30163;42.698;23.344;2022-09-24T00:10:56;25.02;;;13.10;;
44204;SDS011;30163;42.698;23.344;2022-09-24T00:13:24;25.77;;;13.02;;
44204;SDS011;30163;42.698;23.344;2022-09-24T00:15:49;23.33;;;13.05;;
44204;SDS011;30163;42.698;23.344;2022-09-24T00:18:16;23.40;;;14.50;;
44204;SDS011;30163;42.698;23.344;2022-09-24T00:20:42;28.98;;;14.43;;
44204;SDS011;30163;42.698;23.344;2022-09-24T00:23:09;29.63;;;15.90;;
44204;SDS011;30163;42.698;23.344;2022-09-24T00:25:44;31.60;;;17.63;;
44204;SDS011;30163;42.698;23.344;2022-09-24T00:28:29;29.95;;;17.13;;
44204;SDS011;30163;42.698;23.344;2022-09-24T00:30:56;39.10;;;17.10;;
44204;SDS011;30163;42.698;23.344;2022-09-24T00:33:25;33.90;;;16.88;;
44204;SDS011;30163;42.698;23.344;2022-09-24T00:35:52;32.47;;;16.27;;
44204;SDS011;30163;42.698;23.344;2022-09-24T00:38:23;29.50;;;16.48;;
44204;SDS011;30163;42.698;23.344;2022-09-24T00:40:49;29.00;;;16.75;;
44204;SDS011;30163;42.698;23.344;2022-09-24T00:48:46;28.60;;;15.55;;
44204;SDS011;30163;42.698;23.344;2022-09-24T00:51:14;31.90;;;14.90;;
44204;SDS011;30163;42.698;23.344;2022-09-24T00:53:42;29.17;;;15.85;;
44204;SDS011;30163;42.698;23.344;2022-09-24T00:56:10;29.48;;;15.02;;
44204;SDS011;30163;42.698;23.344;2022-09-24T00:58:36;24.13;;;14.75;;
44204;SDS011;30163;42.698;23.344;2022-09-24T01:01:06;28.05;;;15.38;;
44204;SDS011;30163;42.698;23.344;2022-09-24T01:03:32;23.48;;;15.05;;
44204;SDS011;30163;42.698;23.344;2022-09-24T01:06:03;26.90;;;15.23;;
44204;SDS011;30163;42.698;23.344;2022-09-24T01:08:29;32.05;;;15.35;;
44204;SDS011;30163;42.698;23.344;2022-09-24T01:13:24;34.80;;;16.60;;
44204;SDS011;30163;42.698;23.344;2022-09-24T01:16:04;27.67;;;16.48;;
44204;SDS011;30163;42.698;23.344;2022-09-24T01:32:29;30.73;;;17.95;;
44204;SDS011;30163;42.698;23.344;2022-09-24T01:34:59;32.17;;;18.02;;
44204;SDS011;30163;42.698;23.344;2022-09-24T01:37:31;37.05;;;18.02;;
44204;SDS011;30163;42.698;23.344;2022-09-24T01:39:58;36.25;;;17.33;;
44204;SDS011;30163;42.698;23.344;2022-09-24T01:42:24;30.15;;;18.00;;
44204;SDS011;30163;42.698;23.344;2022-09-24T01:44:51;31.55;;;18.50;;
44204;SDS011;30163;42.698;23.344;2022-09-24T01:47:22;33.25;;;19.35;;
44204;SDS011;30163;42.698;23.344;2022-09-24T01:49:53;32.25;;;19.73;;
44204;SDS011;30163;42.698;23.344;2022-09-24T01:52:20;39.13;;;21.52;;
44204;SDS011;30163;42.698;23.344;2022-09-24T01:54:49;34.33;;;20.45;;
44204;SDS011;30163;42.698;23.344;2022-09-24T01:57:29;35.55;;;20.38;;
44204;SDS011;30163;42.698;23.344;2022-09-24T02:00:07;40.45;;;20.85;;
44204;SDS011;30163;42.698;23.344;2022-09-24T02:05:12;37.80;;;21.25;;
44204;SDS011;30163;42.698;23.344;2022-09-24T02:07:40;44.90;;;21.85;;
44204;SDS011;30163;42.698;23.344;2022-09-24T02:10:26;40.58;;;22.92;;
44204;SDS011;30163;42.698;23.344;2022-09-24T02:12:57;52.13;;;23.70;;
44204;SDS011;30163;42.698;23.344;2022-09-24T02:15:29;45.83;;;24.00;;
44204;SDS011;30163;42.698;23.344;2022-09-24T02:17:57;45.92;;;25.58;;
44204;SDS011;30163;42.698;23.344;2022-09-24T02:20:25;43.78;;;24.70;;
44204;SDS011;30163;42.698;23.344;2022-09-24T02:22:52;47.40;;;23.15;;
44204;SDS011;30163;42.698;23.344;2022-09-24T02:25:20;43.95;;;23.95;;
44204;SDS011;30163;42.698;23.344;2022-09-24T02:27:47;46.90;;;24.90;;
44204;SDS011;30163;42.698;23.344;2022-09-24T02:30:13;40.88;;;23.95;;
44204;SDS011;30163;42.698;23.344;2022-09-24T02:32:39;50.83;;;26.08;;
44204;SDS011;30163;42.698;23.344;2022-09-24T02:35:05;47.83;;;25.30;;
44204;SDS011;30163;42.698;23.344;2022-09-24T02:37:35;51.15;;;26.80;;
44204;SDS011;30163;42.698;23.344;2022-09-24T02:40:02;45.05;;;24.00;;
44204;SDS011;30163;42.698;23.344;2022-09-24T02:42:29;52.20;;;26.88;;
44204;SDS011;30163;42.698;23.344;2022-09-24T02:44:55;58.40;;;28.02;;
44204;SDS011;30163;42.698;23.344;2022-09-24T02:47:23;63.72;;;26.83;;
44204;SDS011;30163;42.698;23.344;2022-09-24T02:49:49;50.58;;;26.67;;
44204;SDS011;30163;42.698;23.344;2022-09-24T02:52:14;51.38;;;27.73;;
44204;SDS011;30163;42.698;23.344;2022-09-24T02:54:40;47.22;;;26.27;;
44204;SDS011;30163;42.698;23.344;2022-09-24T02:57:06;52.40;;;25.70;;
44204;SDS011;30163;42.698;23.344;2022-09-24T02:59:32;49.15;;;26.20;;
44204;SDS011;30163;42.698;23.344;2022-09-24T03:01:57;45.95;;;26.48;;
44204;SDS011;30163;42.698;23.344;2022-09-24T03:04:23;52.55;;;27.38;;
44204;SDS011;30163;42.698;23.344;2022-09-24T03:06:49;51.92;;;28.25;;
44204;SDS011;30163;42.698;23.344;2022-09-24T03:09:14;54.17;;;28.48;;
44204;SDS011;30163;42.698;23.344;2022-09-24T03:11:40;57.50;;;27.08;;
44204;SDS011;30163;42.698;23.344;2022-09-24T03:14:05;57.80;;;29.83;;
44204;SDS011;30163;42.698;23.344;2022-09-24T03:16:30;56.15;;;30.45;;
44204;SDS011;30163;42.698;23.344;2022-09-24T03:18:57;67.75;;;29.73;;
44204;SDS011;30163;42.698;23.344;2022-09-24T03:21:22;61.88;;;26.88;;
44204;SDS011;30163;42.698;23.344;2022-09-24T03:23:48;54.58;;;27.92;;
44204;SDS011;30163;42.698;23.344;2022-09-24T03:26:14;51.78;;;27.75;;
44204;SDS011;30163;42.698;23.344;2022-09-24T03:28:41;50.72;;;28.75;;
44204;SDS011;30163;42.698;23.344;2022-09-24T03:31:06;54.58;;;27.35;;
44204;SDS011;30163;42.698;23.344;2022-09-24T03:38:34;48.70;;;28.88;;
44204;SDS011;30163;42.698;23.344;2022-09-24T03:41:00;50.45;;;28.23;;
44204;SDS011;30163;42.698;23.344;2022-09-24T03:43:26;53.97;;;28.02;;
44204;SDS011;30163;42.698;23.344;2022-09-24T03:45:52;63.22;;;29.15;;
44204;SDS011;30163;42.698;23.344;2022-09-24T03:48:18;56.65;;;30.02;;
44204;SDS011;30163;42.698;23.344;2022-09-24T03:50:44;59.67;;;30.67;;
44204;SDS011;30163;42.698;23.344;2022-09-24T03:53:10;61.90;;;30.50;;
44204;SDS011;30163;42.698;23.344;2022-09-24T03:55:41;58.03;;;29.88;;
44204;SDS011;30163;42.698;23.344;2022-09-24T03:58:27;63.60;;;30.95;;
44204;SDS011;30163;42.698;23.344;2022-09-24T04:00:53;62.35;;;31.20;;
44204;SDS011;30163;42.698;23.344;2022-09-24T04:03:20;65.53;;;31.92;;
44204;SDS011;30163;42.698;23.344;2022-09-24T04:05:46;57.33;;;30.92;;
44204;SDS011;30163;42.698;23.344;2022-09-24T04:08:12;56.30;;;29.38;;
44204;SDS011;30163;42.698;23.344;2022-09-24T04:10:37;60.13;;;29.75;;
44204;SDS011;30163;42.698;23.344;2022-09-24T04:13:03;68.10;;;31.33;;
44204;SDS011;30163;42.698;23.344;2022-09-24T04:15:28;66.25;;;32.05;;
44204;SDS011;30163;42.698;23.344;2022-09-24T04:17:55;62.58;;;31.27;;
44204;SDS011;30163;42.698;23.344;2022-09-24T04:20:22;66.43;;;30.98;;
44204;SDS011;30163;42.698;23.344;2022-09-24T04:22:49;55.65;;;29.05;;
44204;SDS011;30163;42.698;23.344;2022-09-24T04:25:15;60.15;;;29.90;;
44204;SDS011;30163;42.698;23.344;2022-09-24T04:27:44;60.67;;;31.02;;
44204;SDS011;30163;42.698;23.344;2022-09-24T04:30:11;60.40;;;29.52;;
44204;SDS011;30163;42.698;23.344;2022-09-24T04:32:37;69.60;;;31.65;;
44204;SDS011;30163;42.698;23.344;2022-09-24T04:35:03;65.47;;;33.47;;
44204;SDS011;30163;42.698;23.344;2022-09-24T04:37:29;70.10;;;32.33;;
44204;SDS011;30163;42.698;23.344;2022-09-24T04:39:55;68.38;;;34.30;;
44204;SDS011;30163;42.698;23.344;2022-09-24T04:42:20;71.03;;;32.33;;
44204;SDS011;30163;42.698;23.344;2022-09-24T04:44:46;63.17;;;30.15;;
44204;SDS011;30163;42.698;23.344;2022-09-24T04:47:15;63.67;;;32.85;;
44204;SDS011;30163;42.698;23.344;2022-09-24T04:49:41;67.22;;;36.72;;
44204;SDS011;30163;42.698;23.344;2022-09-24T04:52:10;74.28;;;36.85;;
44204;SDS011;30163;42.698;23.344;2022-09-24T04:54:38;67.40;;;34.13;;
44204;SDS011;30163;42.698;23.344;2022-09-24T04:57:06;66.15;;;32.28;;
44204;SDS011;30163;42.698;23.344;2022-09-24T04:59:32;59.65;;;33.00;;
44204;SDS011;30163;42.698;23.344;2022-09-24T05:01:57;66.03;;;31.67;;
44204;SDS011;30163;42.698;23.344;2022-09-24T05:04:23;84.32;;;36.85;;
44204;SDS011;30163;42.698;23.344;2022-09-24T05:06:48;79.80;;;39.35;;
44204;SDS011;30163;42.698;23.344;2022-09-24T05:09:13;75.72;;;38.33;;
44204;SDS011;30163;42.698;23.344;2022-09-24T05:11:39;86.30;;;43.05;;
44204;SDS011;30163;42.698;23.344;2022-09-24T05:14:04;96.07;;;44.78;;
44204;SDS011;30163;42.698;23.344;2022-09-24T05:16:30;80.28;;;41.95;;
44204;SDS011;30163;42.698;23.344;2022-09-24T05:18:55;76.65;;;38.30;;
44204;SDS011;30163;42.698;23.344;2022-09-24T05:21:22;82.95;;;42.47;;
44204;SDS011;30163;42.698;23.344;2022-09-24T05:23:47;85.70;;;41.35;;
44204;SDS011;30163;42.698;23.344;2022-09-24T05:26:13;89.70;;;42.40;;
44204;SDS011;30163;42.698;23.344;2022-09-24T05:28:56;80.10;;;38.05;;
44204;SDS011;30163;42.698;23.344;2022-09-24T05:31:22;74.10;;;36.03;;
44204;SDS011;30163;42.698;23.344;2022-09-24T05:33:47;67.75;;;34.60;;
44204;SDS011;30163;42.698;23.344;2022-09-24T05:36:13;75.95;;;32.38;;
44204;SDS011;30163;42.698;23.344;2022-09-24T05:38:38;64.78;;;32.05;;
44204;SDS011;30163;42.698;23.344;2022-09-24T05:41:04;66.55;;;32.58;;
44204;SDS011;30163;42.698;23.344;2022-09-24T05:43:29;64.20;;;29.95;;
44204;SDS011;30163;42.698;23.344;2022-09-24T05:45:56;56.55;;;29.15;;
44204;SDS011;30163;42.698;23.344;2022-09-24T05:48:23;56.92;;;27.63;;
44204;SDS011;30163;42.698;23.344;2022-09-24T05:50:49;50.85;;;26.63;;
44204;SDS011;30163;42.698;23.344;2022-09-24T05:53:19;51.47;;;25.52;;
44204;SDS011;30163;42.698;23.344;2022-09-24T05:55:45;46.35;;;25.33;;
44204;SDS011;30163;42.698;23.344;2022-09-24T05:58:11;47.03;;;25.48;;
44204;SDS011;30163;42.698;23.344;2022-09-24T06:00:37;54.47;;;25.88;;
44204;SDS011;30163;42.698;23.344;2022-09-24T06:03:07;41.08;;;23.95;;
44204;SDS011;30163;42.698;23.344;2022-09-24T06:05:35;62.47;;;26.75;;
44204;SDS011;30163;42.698;23.344;2022-09-24T06:08:01;44.42;;;23.33;;
44204;SDS011;30163;42.698;23.344;2022-09-24T06:10:27;38.35;;;21.70;;
44204;SDS011;30163;42.698;23.344;2022-09-24T06:12:53;38.25;;;22.05;;
44204;SDS011;30163;42.698;23.344;2022-09-24T06:15:19;40.60;;;22.15;;
44204;SDS011;30163;42.698;23.344;2022-09-24T06:17:44;46.88;;;21.58;;
44204;SDS011;30163;42.698;23.344;2022-09-24T06:20:10;58.08;;;20.25;;
44204;SDS011;30163;42.698;23.344;2022-09-24T06:22:36;44.42;;;19.17;;
44204;SDS011;30163;42.698;23.344;2022-09-24T06:25:01;38.05;;;19.30;;
44204;SDS011;30163;42.698;23.344;2022-09-24T06:27:26;29.15;;;17.90;;
44204;SDS011;30163;42.698;23.344;2022-09-24T06:29:52;35.47;;;19.85;;
44204;SDS011;30163;42.698;23.344;2022-09-24T06:32:17;33.05;;;17.23;;
44204;SDS011;30163;42.698;23.344;2022-09-24T06:34:43;32.33;;;17.73;;
44204;SDS011;30163;42.698;23.344;2022-09-24T06:37:09;33.45;;;17.83;;
44204;SDS011;30163;42.698;23.344;2022-09-24T06:39:34;32.28;;;17.45;;
44204;SDS011;30163;42.698;23.344;2022-09-24T06:42:00;28.77;;;17.77;;
44204;SDS011;30163;42.698;23.344;2022-09-24T06:44:25;46.95;;;17.20;;
44204;SDS011;30163;42.698;23.344;2022-09-24T06:46:51;44.13;;;18.45;;
44204;SDS011;30163;42.698;23.344;2022-09-24T06:49:16;53.10;;;17.00;;
44204;SDS011;30163;42.698;23.344;2022-09-24T06:51:42;29.80;;;17.17;;
44204;SDS011;30163;42.698;23.344;2022-09-24T06:54:07;38.72;;;16.70;;
44204;SDS011;30163;42.698;23.344;2022-09-24T06:56:33;27.30;;;14.73;;
44204;SDS011;30163;42.698;23.344;2022-09-24T06:58:58;33.58;;;14.70;;
44204;SDS011;30163;42.698;23.344;2022-09-24T07:01:23;29.40;;;14.40;;
44204;SDS011;30163;42.698;23.344;2022-09-24T07:03:49;31.63;;;15.32;;
44204;SDS011;30163;42.698;23.344;2022-09-24T07:06:14;25.88;;;12.73;;
44204;SDS011;30163;42.698;23.344;2022-09-24T07:08:40;23.50;;;12.82;;
44204;SDS011;30163;42.698;23.344;2022-09-24T07:11:05;21.50;;;13.57;;
44204;SDS011;30163;42.698;23.344;2022-09-24T07:13:31;30.40;;;12.30;;
44204;SDS011;30163;42.698;23.344;2022-09-24T07:15:57;39.75;;;13.35;;
44204;SDS011;30163;42.698;23.344;2022-09-24T07:18:22;28.33;;;11.73;;
44204;SDS011;30163;42.698;23.344;2022-09-24T07:20:51;22.70;;;12.05;;
44204;SDS011;30163;42.698;23.344;2022-09-24T07:23:17;33.28;;;12.48;;
44204;SDS011;30163;42.698;23.344;2022-09-24T07:25:43;28.70;;;11.27;;
44204;SDS011;30163;42.698;23.344;2022-09-24T07:28:09;19.83;;;12.30;;
44204;SDS011;30163;42.698;23.344;2022-09-24T07:30:36;21.23;;;12.38;;
44204;SDS011;30163;42.698;23.344;2022-09-24T07:33:02;19.75;;;12.10;;
44204;SDS011;30163;42.698;23.344;2022-09-24T07:35:28;25.85;;;12.20;;
44204;SDS011;30163;42.698;23.344;2022-09-24T07:38:00;22.77;;;11.85;;
44204;SDS011;30163;42.698;23.344;2022-09-24T07:40:27;26.23;;;12.55;;
44204;SDS011;30163;42.698;23.344;2022-09-24T07:42:53;20.60;;;12.35;;
44204;SDS011;30163;42.698;23.344;2022-09-24T07:45:19;18.10;;;12.30;;
44204;SDS011;30163;42.698;23.344;2022-09-24T07:47:54;26.48;;;11.38;;
44204;SDS011;30163;42.698;23.344;2022-09-24T07:50:30;22.30;;;12.18;;
44204;SDS011;30163;42.698;23.344;2022-09-24T07:52:58;23.45;;;11.20;;
44204;SDS011;30163;42.698;23.344;2022-09-24T07:55:24;18.95;;;10.52;;
44204;SDS011;30163;42.698;23.344;2022-09-24T07:57:51;17.40;;;10.55;;
44204;SDS011;30163;42.698;23.344;2022-09-24T08:00:18;20.58;;;11.05;;
44204;SDS011;30163;42.698;23.344;2022-09-24T08:02:45;25.67;;;12.23;;
44204;SDS011;30163;42.698;23.344;2022-09-24T08:05:12;19.67;;;11.05;;
44204;SDS011;30163;42.698;23.344;2022-09-24T08:07:38;24.80;;;11.40;;
44204;SDS011;30163;42.698;23.344;2022-09-24T08:10:03;21.35;;;11.30;;
44204;SDS011;30163;42.698;23.344;2022-09-24T08:12:29;19.85;;;11.20;;
44204;SDS011;30163;42.698;23.344;2022-09-24T08:14:54;27.48;;;12.02;;
44204;SDS011;30163;42.698;23.344;2022-09-24T08:17:20;23.90;;;11.85;;
44204;SDS011;30163;42.698;23.344;2022-09-24T08:19:45;24.85;;;11.88;;
44204;SDS011;30163;42.698;23.344;2022-09-24T08:22:12;19.23;;;11.30;;
44204;SDS011;30163;42.698;23.344;2022-09-24T08:24:38;24.08;;;12.50;;
44204;SDS011;30163;42.698;23.344;2022-09-24T08:27:04;31.58;;;12.35;;
44204;SDS011;30163;42.698;23.344;2022-09-24T08:29:29;23.00;;;11.85;;
44204;SDS011;30163;42.698;23.344;2022-09-24T08:31:55;25.50;;;12.73;;
44204;SDS011;30163;42.698;23.344;2022-09-24T08:34:20;24.17;;;13.18;;
44204;SDS011;30163;42.698;23.344;2022-09-24T08:36:45;30.45;;;13.18;;
44204;SDS011;30163;42.698;23.344;2022-09-24T08:39:11;33.05;;;13.88;;
44204;SDS011;30163;42.698;23.344;2022-09-24T08:41:42;24.58;;;13.27;;
44204;SDS011;30163;42.698;23.344;2022-09-24T08:44:19;26.02;;;14.07;;
44204;SDS011;30163;42.698;23.344;2022-09-24T08:47:20;25.10;;;15.13;;
44204;SDS011;30163;42.698;23.344;2022-09-24T08:54:57;27.40;;;13.68;;
44204;SDS011;30163;42.698;23.344;2022-09-24T08:57:28;26.90;;;13.77;;
44204;SDS011;30163;42.698;23.344;2022-09-24T09:00:02;20.35;;;12.15;;
44204;SDS011;30163;42.698;23.344;2022-09-24T09:08:01;25.25;;;12.60;;
44204;SDS011;30163;42.698;23.344;2022-09-24T09:10:38;28.52;;;12.50;;
44204;SDS011;30163;42.698;23.344;2022-09-24T09:15:52;21.00;;;12.43;;
44204;SDS011;30163;42.698;23.344;2022-09-24T09:18:30;27.17;;;13.07;;
44204;SDS011;30163;42.698;23.344;2022-09-24T09:21:09;25.27;;;12.02;;
44204;SDS011;30163;42.698;23.344;2022-09-24T09:23:42;21.13;;;12.25;;
44204;SDS011;30163;42.698;23.344;2022-09-24T09:26:12;25.75;;;12.82;;
44204;SDS011;30163;42.698;23.344;2022-09-24T09:28:37;27.38;;;12.32;;
44204;SDS011;30163;42.698;23.344;2022-09-24T09:31:16;25.58;;;13.55;;
44204;SDS011;30163;42.698;23.344;2022-09-24T09:39:33;23.08;;;11.18;;
44204;SDS011;30163;42.698;23.344;2022-09-24T09:45:00;18.45;;;10.63;;
44204;SDS011;30163;42.698;23.344;2022-09-24T09:47:48;20.13;;;8.52;;
44204;SDS011;30163;42.698;23.344;2022-09-24T09:52:54;19.70;;;9.15;;
44204;SDS011;30163;42.698;23.344;2022-09-24T09:55:27;17.48;;;8.75;;
44204;SDS011;30163;42.698;23.344;2022-09-24T09:58:08;19.60;;;7.65;;
44204;SDS011;30163;42.698;23.344;2022-09-24T10:00:40;18.83;;;7.53;;
44204;SDS011;30163;42.698;23.344;2022-09-24T10:03:05;18.13;;;7.53;;
44204;SDS011;30163;42.698;23.344;2022-09-24T10:05:57;13.80;;;8.00;;
44204;SDS011;30163;42.698;23.344;2022-09-24T10:08:24;23.15;;;8.60;;
44204;SDS011;30163;42.698;23.344;2022-09-24T10:10:54;15.15;;;7.93;;
44204;SDS011;30163;42.698;23.344;2022-09-24T10:13:20;13.95;;;6.40;;
44204;SDS011;30163;42.698;23.344;2022-09-24T10:15:53;17.67;;;6.75;;
44204;SDS011;30163;42.698;23.344;2022-09-24T10:23:19;13.88;;;6.55;;
44204;SDS011;30163;42.698;23.344;2022-09-24T10:25:49;9.10;;;5.13;;
44204;SDS011;30163;42.698;23.344;2022-09-24T10:28:18;9.53;;;5.23;;
44204;SDS011;30163;42.698;23.344;2022-09-24T10:31:04;10.00;;;5.10;;
44204;SDS011;30163;42.698;23.344;2022-09-24T10:33:44;15.17;;;5.30;;
44204;SDS011;30163;42.698;23.344;2022-09-24T10:36:30;13.10;;;4.97;;
44204;SDS011;30163;42.698;23.344;2022-09-24T10:39:14;8.45;;;4.55;;
44204;SDS011;30163;42.698;23.344;2022-09-24T10:41:49;12.93;;;4.90;;
44204;SDS011;30163;42.698;23.344;2022-09-24T10:44:19;14.35;;;6.30;;
44204;SDS011;30163;42.698;23.344;2022-09-24T11:00:20;4.47;;;2.90;;
44204;SDS011;30163;42.698;23.344;2022-09-24T11:05:30;9.93;;;4.05;;
44204;SDS011;30163;42.698;23.344;2022-09-24T11:08:03;6.70;;;4.60;;
44204;SDS011;30163;42.698;23.344;2022-09-24T11:10:47;7.82;;;3.13;;
44204;SDS011;30163;42.698;23.344;2022-09-24T11:29:48;4.07;;;2.90;;
44204;SDS011;30163;42.698;23.344;2022-09-24T11:32:29;8.20;;;2.63;;
44204;SDS011;30163;42.698;23.344;2022-09-24T11:46:33;4.50;;;2.92;;
44204;SDS011;30163;42.698;23.344;2022-09-24T11:51:47;11.00;;;4.05;;
44204;SDS011;30163;42.698;23.344;2022-09-24T11:54:18;9.63;;;2.95;;
44204;SDS011;30163;42.698;23.344;2022-09-24T11:56:48;6.95;;;3.65;;
44204;SDS011;30163;42.698;23.344;2022-09-24T12:02:22;4.97;;;2.72;;
44204;SDS011;30163;42.698;23.344;2022-09-24T12:07:22;5.07;;;3.30;;
44204;SDS011;30163;42.698;23.344;2022-09-24T12:10:19;3.72;;;2.75;;
44204;SDS011;30163;42.698;23.344;2022-09-24T12:12:49;12.23;;;3.78;;
44204;SDS011;30163;42.698;23.344;2022-09-24T12:15:19;7.03;;;3.63;;
44204;SDS011;30163;42.698;23.344;2022-09-24T12:17:55;6.43;;;4.07;;
44204;SDS011;30163;42.698;23.344;2022-09-24T12:20:25;6.07;;;3.40;;
44204;SDS011;30163;42.698;23.344;2022-09-24T12:22:55;7.43;;;3.05;;
44204;SDS011;30163;42.698;23.344;2022-09-24T12:25:24;5.82;;;3.20;;
44204;SDS011;30163;42.698;23.344;2022-09-24T12:27:51;6.00;;;2.95;;
44204;SDS011;30163;42.698;23.344;2022-09-24T12:33:31;10.23;;;3.10;;
44204;SDS011;30163;42.698;23.344;2022-09-24T12:39:08;4.85;;;3.10;;
44204;SDS011;30163;42.698;23.344;2022-09-24T12:46:37;4.40;;;3.03;;
44204;SDS011;30163;42.698;23.344;2022-09-24T12:51:50;8.98;;;3.72;;
44204;SDS011;30163;42.698;23.344;2022-09-24T12:56:45;4.45;;;2.92;;
44204;SDS011;30163;42.698;23.344;2022-09-24T12:59:27;4.75;;;2.70;;
44204;SDS011;30163;42.698;23.344;2022-09-24T13:01:53;5.47;;;3.35;;
44204;SDS011;30163;42.698;23.344;2022-09-24T13:06:44;4.25;;;2.65;;
44204;SDS011;30163;42.698;23.344;2022-09-24T13:14:48;10.65;;;3.17;;
44204;SDS011;30163;42.698;23.344;2022-09-24T13:17:19;3.55;;;2.80;;
44204;SDS011;30163;42.698;23.344;2022-09-24T13:19:45;6.80;;;3.00;;
44204;SDS011;30163;42.698;23.344;2022-09-24T13:22:23;5.78;;;2.53;;
44204;SDS011;30163;42.698;23.344;2022-09-24T13:32:53;5.93;;;2.50;;
44204;SDS011;30163;42.698;23.344;2022-09-24T13:35:23;4.88;;;3.15;;
44204;SDS011;30163;42.698;23.344;2022-09-24T13:37:54;4.82;;;3.20;;
44204;SDS011;30163;42.698;23.344;2022-09-24T13:40:24;6.50;;;3.45;;
44204;SDS011;30163;42.698;23.344;2022-09-24T13:43:03;7.80;;;2.85;;
44204;SDS011;30163;42.698;23.344;2022-09-24T13:45:31;5.28;;;3.17;;
44204;SDS011;30163;42.698;23.344;2022-09-24T13:48:14;3.90;;;3.17;;
44204;SDS011;30163;42.698;23.344;2022-09-24T13:50:44;6.05;;;2.38;;
44204;SDS011;30163;42.698;23.344;2022-09-24T13:55:44;5.85;;;2.88;;
44204;SDS011;30163;42.698;23.344;2022-09-24T14:01:00;6.40;;;2.80;;
44204;SDS011;30163;42.698;23.344;2022-09-24T14:03:30;14.98;;;5.07;;
44204;SDS011;30163;42.698;23.344;2022-09-24T14:05:59;4.32;;;2.83;;
44204;SDS011;30163;42.698;23.344;2022-09-24T14:08:26;5.65;;;3.70;;
44204;SDS011;30163;42.698;23.344;2022-09-24T14:11:04;6.03;;;3.15;;
44204;SDS011;30163;42.698;23.344;2022-09-24T14:13:40;5.60;;;3.10;;
44204;SDS011;30163;42.698;23.344;2022-09-24T14:16:15;6.80;;;2.60;;
44204;SDS011;30163;42.698;23.344;2022-09-24T14:18:45;5.35;;;3.30;;
44204;SDS011;30163;42.698;23.344;2022-09-24T14:21:12;4.65;;;2.90;;
44204;SDS011;30163;42.698;23.344;2022-09-24T14:26:27;7.13;;;3.28;;
44204;SDS011;30163;42.698;23.344;2022-09-24T14:28:55;5.60;;;3.33;;
44204;SDS011;30163;42.698;23.344;2022-09-24T14:31:22;9.02;;;3.45;;
44204;SDS011;30163;42.698;23.344;2022-09-24T14:33:48;5.07;;;3.03;;
44204;SDS011;30163;42.698;23.344;2022-09-24T14:36:13;9.32;;;3.15;;
44204;SDS011;30163;42.698;23.344;2022-09-24T14:38:50;9.40;;;3.35;;
44204;SDS011;30163;42.698;23.344;2022-09-24T14:41:23;13.55;;;3.03;;
44204;SDS011;30163;42.698;23.344;2022-09-24T14:43:53;10.10;;;3.08;;
44204;SDS011;30163;42.698;23.344;2022-09-24T14:49:18;8.60;;;3.17;;
44204;SDS011;30163;42.698;23.344;2022-09-24T14:51:53;11.93;;;3.40;;
44204;SDS011;30163;42.698;23.344;2022-09-24T14:54:28;4.35;;;3.50;;
44204;SDS011;30163;42.698;23.344;2022-09-24T14:57:06;6.07;;;3.17;;
44204;SDS011;30163;42.698;23.344;2022-09-24T14:59:52;6.93;;;3.00;;
44204;SDS011;30163;42.698;23.344;2022-09-24T15:04:53;6.35;;;3.33;;
44204;SDS011;30163;42.698;23.344;2022-09-24T15:07:21;7.22;;;3.33;;
44204;SDS011;30163;42.698;23.344;2022-09-24T15:09:49;7.80;;;3.97;;
44204;SDS011;30163;42.698;23.344;2022-09-24T15:12:57;12.77;;;3.92;;
44204;SDS011;30163;42.698;23.344;2022-09-24T15:17:39;6.05;;;4.00;;
44204;SDS011;30163;42.698;23.344;2022-09-24T15:20:04;16.27;;;4.00;;
44204;SDS011;30163;42.698;23.344;2022-09-24T15:22:30;16.65;;;3.53;;
44204;SDS011;30163;42.698;23.344;2022-09-24T15:24:56;4.45;;;3.05;;
44204;SDS011;30163;42.698;23.344;2022-09-24T15:27:23;17.73;;;3.42;;
44204;SDS011;30163;42.698;23.344;2022-09-24T15:29:51;8.52;;;3.60;;
44204;SDS011;30163;42.698;23.344;2022-09-24T15:32:19;10.02;;;3.65;;
44204;SDS011;30163;42.698;23.344;2022-09-24T15:34:45;9.10;;;3.00;;
44204;SDS011;30163;42.698;23.344;2022-09-24T15:37:11;4.57;;;3.22;;
44204;SDS011;30163;42.698;23.344;2022-09-24T15:39:39;6.53;;;3.33;;
44204;SDS011;30163;42.698;23.344;2022-09-24T15:42:04;22.90;;;3.83;;
44204;SDS011;30163;42.698;23.344;2022-09-24T15:44:30;7.38;;;3.40;;
44204;SDS011;30163;42.698;23.344;2022-09-24T15:46:55;12.40;;;3.55;;
44204;SDS011;30163;42.698;23.344;2022-09-24T15:49:21;4.32;;;2.95;;
44204;SDS011;30163;42.698;23.344;2022-09-24T15:51:48;6.55;;;3.83;;
44204;SDS011;30163;42.698;23.344;2022-09-24T15:54:21;17.63;;;4.88;;
44204;SDS011;30163;42.698;23.344;2022-09-24T15:56:48;11.68;;;3.78;;
44204;SDS011;30163;42.698;23.344;2022-09-24T15:59:16;10.38;;;3.58;;
44204;SDS011;30163;42.698;23.344;2022-09-24T16:01:43;7.68;;;3.78;;
44204;SDS011;30163;42.698;23.344;2022-09-24T16:04:09;8.88;;;3.63;;
44204;SDS011;30163;42.698;23.344;2022-09-24T16:06:35;6.78;;;3.95;;
44204;SDS011;30163;42.698;23.344;2022-09-24T16:09:01;7.75;;;4.65;;
44204;SDS011;30163;42.698;23.344;2022-09-24T16:11:26;14.80;;;8.10;;
44204;SDS011;30163;42.698;23.344;2022-09-24T16:13:52;11.23;;;6.05;;
44204;SDS011;30163;42.698;23.344;2022-09-24T16:16:17;13.10;;;7.32;;
44204;SDS011;30163;42.698;23.344;2022-09-24T16:18:42;7.93;;;3.33;;
44204;SDS011;30163;42.698;23.344;2022-09-24T16:21:08;5.05;;;3.88;;
44204;SDS011;30163;42.698;23.344;2022-09-24T16:23:33;5.55;;;3.95;;
44204;SDS011;30163;42.698;23.344;2022-09-24T16:25:59;20.75;;;7.07;;
44204;SDS011;30163;42.698;23.344;2022-09-24T16:28:25;143.95;;;72.65;;
44204;SDS011;30163;42.698;23.344;2022-09-24T16:30:51;95.85;;;44.83;;
44204;SDS011;30163;42.698;23.344;2022-09-24T16:33:17;76.72;;;37.10;;
44204;SDS011;30163;42.698;23.344;2022-09-24T16:35:42;104.63;;;52.53;;
44204;SDS011;30163;42.698;23.344;2022-09-24T16:38:08;30.80;;;16.33;;
44204;SDS011;30163;42.698;23.344;2022-09-24T16:40:33;30.52;;;15.27;;
44204;SDS011;30163;42.698;23.344;2022-09-24T16:42:58;29.58;;;14.52;;
44204;SDS011;30163;42.698;23.344;2022-09-24T16:45:24;16.17;;;9.93;;
44204;SDS011;30163;42.698;23.344;2022-09-24T16:47:49;23.77;;;9.57;;
44204;SDS011;30163;42.698;23.344;2022-09-24T16:50:14;30.75;;;15.38;;
44204;SDS011;30163;42.698;23.344;2022-09-24T16:52:40;13.13;;;7.65;;
44204;SDS011;30163;42.698;23.344;2022-09-24T16:55:08;27.40;;;14.18;;
44204;SDS011;30163;42.698;23.344;2022-09-24T16:57:35;83.97;;;37.13;;
44204;SDS011;30163;42.698;23.344;2022-09-24T17:00:02;97.63;;;38.85;;
44204;SDS011;30163;42.698;23.344;2022-09-24T17:02:30;40.20;;;17.20;;
44204;SDS011;30163;42.698;23.344;2022-09-24T17:04:56;42.45;;;20.02;;